Aberdeen, Idaho
Current Conditions -  °F | °C
As of 11:53 AM on Thursday 27 Nov 2014 (Local Time) from KPIH Reporting Station
Clear Clear  
Wind Chill: 14°   Ceiling: Unl
Heat Index: 14°   Visibility: 10mi
Dew Point: -2°   Wind: 15mph
Humidity: 33%   Direction: 220°SW
Pressure: 30.21"   Gusts: NA
Location:  42.94°N, 112.84°W
Report Text: KPIH 271853Z 22013KT 10SM CLR 14/M02 A3021 RMK AO2 SLP212 T01441017
Loading
Personal Weather Stations






























Interactive Weather Map New forecast layout! Learn more

10-Day Weather Forecast

Advertisements
Track Severe Weather on mobile